Decatur, Texas
Current Conditions -  °F | °C
As of 3:15 AM on Monday 22 Dec 2014 (Local Time) from KLUD Reporting Station
Clear Clear  
Wind Chill: 44°   Ceiling: Unl
Heat Index: 48°   Visibility: 10mi
Dew Point: 46°   Wind: 12mph
Humidity: 92%   Direction: 200°SSW
Pressure: 29.59"   Gusts: NA
Location:  33.23°N, 97.59°W
Report Text: KLUD 220915Z AUTO 20010KT 10SM CLR 09/08 A2959 RMK AO2 T00910079
Loading
Personal Weather Stations






























Interactive Weather Map New forecast layout! Learn more

10-Day Weather Forecast

Advertisements
Track Severe Weather on mobile